Soaring Guidance
Issued by NWS Reno, NV

Home | Current Version | Previous Version | Text Only | Print | Product List | Glossary On
Versions: 1 2 3 4 5 6 7 8 9 10 11 12 13
000
UXUS97 KREV 141446
SRGREV

SOARING FORECAST
NATIONAL WEATHER SERVICE - RENO NV
700 AM PST SUN FEB 14 2016

THIS SOARING FORECAST IS FOR THE EASTERN SIERRA AND WESTERN NEVADA
WITH SPECIFIC INDICES FOR THE GREATER RENO AREA.

THIS FORECAST IS PREPARED DAILY BY 700 AM AND IS NOT UPDATED.

FOR CURRENT FLIGHT CONDITIONS...FORECASTS...AND ADVISORIES...ACCESS
YOUR LOCAL BRIEFING OUTLET OR FLIGHT SERVICE STATION.

*******************************************************************
FORECASTED LOCAL INDICES FOR RENO:        TODAY     YESTERDAY
FORECASTED MAX TEMP AT RENO (DEG F).....     64          65
FORECASTED TRIGGER TEMPERATURE (DEG F)..     57          63
   EXCEEDED YESTERDAY BY 1555 PM PST
FORECASTED MAXIMUM ALTITUDE (FT MSL)....  11100        8500
FORECASTED SOARING INDEX (FPM)..........    453         285
FORECASTED K-INDEX.........VALID 18Z....     13         -10
FORECASTED K-INDEX.........VALID 00Z....     19          -5
FORECASTED LIFTED INDEX....VALID 18Z....     12           9
FORECASTED LIFTED INDEX....VALID 00Z....      9           6

AFTERNOON WINDS ALOFT FORECAST
MSL (FT) WIND/TEMP
9000  3626/+02
10000 3525/+00
12000 3522/-02
14000 3325/-06
16000 3329/-10
18000 3341/-14
24000 3240/-24
30000 3252/-41
34000 3054/-51
39000 3063/-64

SLIDE MOUNTAIN DATA:
     DATE       TIME     TEMP  DEWPT   RH         WIND (MPH)
                        (F)   (F)           | DIR  SPEED GUST
2016-02-14    05:50      33    25     80    | 341   18   29
2016-02-14    05:30      33    25     79    | 338   17   27
2016-02-14    05:20      31    26     86    | 340   21   30
2016-02-14    05:00      30    25     87    | 341   27   37

RENO TAF FORECAST:
KRNO 141120Z 1412/1512 VRB03KT P6SM BKN250
     FM142000 35010G16KT P6SM BKN045 OVC200
     FM150200 VRB03KT P6SM SCT040

CARSON CITY TAF FORECAST:
KCXP 141120Z 1412/1512 VRB03KT P6SM SCT250
     FM142000 36008G15KT P6SM BKN045 BKN200
     FM150200 VRB04KT P6SM SCT040

OUTLOOK FOR THE RENO-CARSON CITY-MINDEN AREA:
.WASHINGTONS BIRTHDAY...SUNNY. HIGHS 60 TO 65. LIGHT WINDS.

SUNRISE AND SUNSET
FEBRUARY 14 2016......SUNRISE   653 AM PST   SUNSET   534 PM PST
FEBRUARY 15 2016......SUNRISE   652 AM PST   SUNSET   535 PM PST


USA.gov is the U.S. government's official web portal to all federal, state and local government web resources and services.